Air Transat Virtuel

VVTS Airport Information

Runway Information
Runway 07R Length 12468 ft width 148 ft
Elevation 24 ft Threshold 2431 ft Heading 69
Runway 25L Length 12468 ft Width 148 ft
Elevation 32 ft Threshold ft Heading 249
Runway 07L Length 10000 ft width 148 ft
Elevation 24 ft Threshold ft Heading 69
Runway 25R Length 10000 ft Width 148 ft
Elevation 32 ft Threshold ft Heading 249
Airport Frequencies
Type APP Name APP Frequency 125.5 MHZ
Type ATIS Name ATIS Frequency 128 MHZ
Type GND Name GND Frequency 121.9 MHZ
Type TWR Name TWR Frequency 118.7 MHZ
Airport Navaids
Type NDB Name Tansonnhat Frequency 343 KHZ
Type NDB Name Tansonnhat Frequency 375 KHZ
Type NDB Name Tansonnhat Frequency 326 KHZ
Type NDB Name Tansonnhat Frequency 358 KHZ
Type VOR-DME Name Tansonnhat Frequency 116700 KHZ
Airport Weather Information & NOTAM
ADDS - METARS form results

(1210 UTC 28 June 2022)
Data provider http://aviationweather.gov/metar/data/
 
METAR text: VVTS 281200Z 28004KT 9999 FEW017 SCT050 30/25 Q1005 NOSIG
Conditions at: VVTS (HO CHI MINH/TANS, VN) observed 1200 UTC 28 June 2022
Temperature: 30.0°C (86°F)
Dewpoint: 25.0°C (77°F) [RH = 75%]
Pressure (altimeter): 29.68 inches Hg (1005.0 mb)
Winds: from the W (280 degrees) at 5 MPH (4 knots; 2.1 m/s)
Visibility: 6 or more miles (10+ km)
Ceiling: at least 12,000 feet AGL
Clouds: few clouds at 1700 feet AGL
scattered clouds at 5000 feet AGL
Weather: no significant weather observed at this time

METAR text: VVTS 281130Z 30005KT 9999 SCT017 SCT050 30/25 Q1004 NOSIG
Conditions at: VVTS (HO CHI MINH/TANS, VN) observed 1130 UTC 28 June 2022
Temperature: 30.0°C (86°F)
Dewpoint: 25.0°C (77°F) [RH = 75%]
Pressure (altimeter): 29.65 inches Hg (1004.0 mb)
Winds: from the WNW (300 degrees) at 6 MPH (5 knots; 2.6 m/s)
Visibility: 6 or more miles (10+ km)
Ceiling: at least 12,000 feet AGL
Clouds: scattered clouds at 1700 feet AGL
scattered clouds at 5000 feet AGL
Weather: no significant weather observed at this time

Forecast for: VVTS (HO CHI MINH/TANS, VN)
Text: TAF VVTS 281100Z 2812/2918 28008KT 9999 SCT017
Forecast period: 1200 UTC 28 June 2022 to 1800 UTC 29 June 2022
Forecast type: FROM: standard forecast or significant change
Winds: from the W (280 degrees) at 9 MPH (8 knots; 4.1 m/s)
Visibility: 6 or more miles (10+ km)
Ceiling: at least 12,000 feet AGL
Clouds: scattered clouds at 1700 feet AGL
Weather: no significant weather forecast for this period
Text: TEMPO 2906/2910 26015G28KT 3000 TSRA SCT015 SCT017CB
Forecast period: 0600 to 1000 UTC 29 June 2022
Forecast type: TEMPORARY: The following changes expected for less than half the time period
Winds: from the W (260 degrees) at 17 MPH (15 knots; 7.7 m/s)
gusting to 32 MPH (28 knots; 14.4 m/s)
Visibility: 1.86 miles (2.99 km)
Ceiling: at least 12,000 feet AGL
Clouds: scattered clouds at 1500 feet AGL
scattered clouds at 1700 feet AGL
Weather: TSRA  (rain associated with thunderstorm(s))